Time;durP1;ratioP1;P1;durP2;ratioP2;P2;SDS_P1;SDS_P2;PMS_P1;PMS_P2;Temp;Humidity;BMP_temperature;BMP_pressure;BME280_temperature;BME280_humidity;BME280_pressure;Samples;Min_cycle;Max_cycle;Signal;HPM_P1;HPM_P2
2023/07/09 00:02:13;;;;;;;;;;;25.40;65.40;;;;;;5109413;28;19922;-71
2023/07/09 00:04:38;;;;;;;;;;;25.40;65.60;;;;;;5109252;28;19927;-72
2023/07/09 00:07:04;;;;;;;;;;;25.30;65.60;;;;;;5087801;28;20401;-71
2023/07/09 00:09:30;;;;;;;;;;;25.30;65.60;;;;;;5089288;28;19915;-71
2023/07/09 00:11:56;;;;;;;;;;;25.30;65.70;;;;;;5097856;28;19911;-71
2023/07/09 00:14:21;;;;;;;;;;;25.30;65.70;;;;;;5109176;28;19922;-71
2023/07/09 00:16:50;;;;;;;;;;;25.20;65.50;;;;;;5108961;28;19912;-71
2023/07/09 00:19:17;;;;;;;;;;;25.20;65.50;;;;;;5109052;28;20361;-71
2023/07/09 00:21:45;;;;;;;;;;;25.20;65.50;;;;;;5109215;28;19911;-71
2023/07/09 00:24:10;;;;;;;;;;;25.10;65.70;;;;;;5103338;28;20372;-71
2023/07/09 00:26:38;;;;;;;;;;;25.10;65.70;;;;;;5099583;28;19926;-71
2023/07/09 00:29:04;;;;;;;;;;;25.10;65.80;;;;;;5109118;28;20290;-71
2023/07/09 00:31:29;;;;;;;;;;;25.00;65.80;;;;;;5109106;28;19964;-71
2023/07/09 00:33:55;;;;;;;;;;;25.00;65.90;;;;;;5108758;28;19927;-71
2023/07/09 00:36:26;;;;;;;;;;;25.00;65.90;;;;;;5107359;28;19915;-71
2023/07/09 00:38:52;;;;;;;;;;;24.90;65.70;;;;;;5107539;28;19959;-71
2023/07/09 00:41:18;;;;;;;;;;;24.90;65.70;;;;;;5108974;28;19959;-71
2023/07/09 00:43:45;;;;;;;;;;;24.90;65.90;;;;;;5121392;28;20669;-71
2023/07/09 00:46:37;;;;;;;;;;;24.90;65.80;;;;;;5129203;27;19912;-71
2023/07/09 00:49:07;;;;;;;;;;;24.90;66.00;;;;;;5096923;27;20358;-71
2023/07/09 00:51:35;;;;;;;;;;;24.80;66.00;;;;;;5108931;28;20267;-71
2023/07/09 00:54:07;;;;;;;;;;;24.80;66.10;;;;;;5104557;28;20384;-71
2023/07/09 00:56:42;;;;;;;;;;;24.70;66.10;;;;;;5101560;28;19923;-71
2023/07/09 00:59:10;;;;;;;;;;;24.70;66.20;;;;;;5108607;28;19915;-71
2023/07/09 01:01:36;;;;;;;;;;;24.70;66.10;;;;;;5108701;28;19943;-71
2023/07/09 01:04:03;;;;;;;;;;;24.70;66.00;;;;;;5108785;28;20244;-71
2023/07/09 01:06:32;;;;;;;;;;;24.70;66.10;;;;;;5108398;28;19962;-71
2023/07/09 01:09:00;;;;;;;;;;;24.70;66.10;;;;;;5108789;28;20003;-71
2023/07/09 01:11:26;;;;;;;;;;;24.60;66.10;;;;;;5102253;27;19908;-71
2023/07/09 01:13:56;;;;;;;;;;;24.60;66.30;;;;;;5112334;28;19943;-71
2023/07/09 01:16:23;;;;;;;;;;;24.50;66.20;;;;;;5112022;28;19922;-72
2023/07/09 01:18:49;;;;;;;;;;;24.50;66.40;;;;;;5112631;28;20454;-71
2023/07/09 01:21:15;;;;;;;;;;;24.50;66.30;;;;;;5112359;28;19916;-71
2023/07/09 01:23:44;;;;;;;;;;;24.50;66.30;;;;;;5111059;28;19995;-71
2023/07/09 01:26:14;;;;;;;;;;;24.40;66.50;;;;;;5100531;28;19911;-71
2023/07/09 01:28:43;;;;;;;;;;;24.40;66.10;;;;;;5112696;28;19918;-71
2023/07/09 01:31:09;;;;;;;;;;;24.40;66.30;;;;;;5112355;28;19955;-71
2023/07/09 01:33:35;;;;;;;;;;;24.40;66.50;;;;;;5098414;28;19912;-71
2023/07/09 01:36:00;;;;;;;;;;;24.30;66.60;;;;;;5111848;28;19961;-71
2023/07/09 01:38:32;;;;;;;;;;;24.30;66.80;;;;;;5112405;28;19965;-71
2023/07/09 01:40:57;;;;;;;;;;;24.30;66.50;;;;;;5112263;28;20480;-71
2023/07/09 01:43:24;;;;;;;;;;;24.30;66.70;;;;;;5112316;28;19915;-71
2023/07/09 01:45:51;;;;;;;;;;;24.20;66.70;;;;;;5111868;28;19951;-71
2023/07/09 01:48:20;;;;;;;;;;;24.20;66.70;;;;;;5110722;28;19919;-71
2023/07/09 01:50:46;;;;;;;;;;;24.20;66.70;;;;;;5112230;28;19908;-71
2023/07/09 01:53:15;;;;;;;;;;;24.10;66.70;;;;;;5112070;28;19964;-71
2023/07/09 01:55:41;;;;;;;;;;;24.10;66.70;;;;;;5097778;28;19907;-71
2023/07/09 01:58:08;;;;;;;;;;;24.10;66.90;;;;;;5111813;28;19915;-71
2023/07/09 02:00:36;;;;;;;;;;;24.10;66.90;;;;;;5111869;28;19963;-71
2023/07/09 02:03:02;;;;;;;;;;;24.10;66.90;;;;;;5110460;28;20007;-71
2023/07/09 02:05:30;;;;;;;;;;;24.00;67.00;;;;;;5111058;28;19999;-71
2023/07/09 02:07:55;;;;;;;;;;;24.00;67.00;;;;;;5111710;28;19965;-71
2023/07/09 02:10:21;;;;;;;;;;;24.00;67.20;;;;;;5107884;28;19920;-71
2023/07/09 02:12:47;;;;;;;;;;;23.90;67.10;;;;;;5107357;28;19916;-71
2023/07/09 02:15:13;;;;;;;;;;;23.90;67.00;;;;;;5109702;28;20314;-71
2023/07/09 02:17:38;;;;;;;;;;;23.90;67.10;;;;;;5111228;28;19956;-71
2023/07/09 02:20:06;;;;;;;;;;;23.90;67.20;;;;;;5111216;28;19976;-71
2023/07/09 02:22:32;;;;;;;;;;;23.90;67.20;;;;;;5110863;28;19926;-71
2023/07/09 02:24:58;;;;;;;;;;;23.80;67.30;;;;;;5098640;28;19965;-71
2023/07/09 02:27:23;;;;;;;;;;;23.80;67.30;;;;;;5109916;28;19908;-71
2023/07/09 02:29:49;;;;;;;;;;;23.80;67.50;;;;;;5111284;28;19911;-71
2023/07/09 02:32:19;;;;;;;;;;;23.80;67.60;;;;;;5111418;28;20431;-71
2023/07/09 02:34:48;;;;;;;;;;;23.70;67.70;;;;;;5111078;28;19911;-71
2023/07/09 02:37:15;;;;;;;;;;;23.70;68.40;;;;;;5112251;27;19919;-71
2023/07/09 02:39:41;;;;;;;;;;;23.60;67.50;;;;;;5111052;27;20403;-71
2023/07/09 02:42:08;;;;;;;;;;;23.60;67.70;;;;;;5110932;28;19911;-71
2023/07/09 02:44:34;;;;;;;;;;;23.60;67.60;;;;;;5110920;28;19918;-71
2023/07/09 02:46:59;;;;;;;;;;;23.60;67.60;;;;;;5110366;28;19912;-71
2023/07/09 02:49:25;;;;;;;;;;;23.60;67.80;;;;;;5110703;28;20462;-71
2023/07/09 02:51:50;;;;;;;;;;;23.60;67.90;;;;;;5109456;28;19912;-71
2023/07/09 02:54:16;;;;;;;;;;;23.50;68.00;;;;;;5104283;28;19988;-71
2023/07/09 02:56:41;;;;;;;;;;;23.50;68.20;;;;;;5103130;28;20381;-71
2023/07/09 02:59:07;;;;;;;;;;;23.50;68.20;;;;;;5109524;28;19907;-71
2023/07/09 03:01:34;;;;;;;;;;;23.40;68.40;;;;;;5110772;28;19912;-71
2023/07/09 03:04:01;;;;;;;;;;;23.40;68.10;;;;;;5110948;28;19968;-71
2023/07/09 03:06:27;;;;;;;;;;;23.40;68.10;;;;;;5110095;28;20372;-71
2023/07/09 03:08:53;;;;;;;;;;;23.40;68.10;;;;;;5110596;28;19964;-71
2023/07/09 03:11:19;;;;;;;;;;;23.40;68.30;;;;;;5102544;28;19966;-71
2023/07/09 03:13:44;;;;;;;;;;;23.40;68.20;;;;;;5110034;28;19912;-71
2023/07/09 03:16:10;;;;;;;;;;;23.30;68.30;;;;;;5110131;28;19961;-71
2023/07/09 03:18:36;;;;;;;;;;;23.30;68.40;;;;;;5110691;28;19908;-71
2023/07/09 03:21:01;;;;;;;;;;;23.30;68.40;;;;;;5110435;28;19919;-71
2023/07/09 03:23:27;;;;;;;;;;;23.30;68.40;;;;;;5110450;28;20273;-71
2023/07/09 03:25:52;;;;;;;;;;;23.20;68.50;;;;;;5096103;28;19919;-71
2023/07/09 03:28:18;;;;;;;;;;;23.20;68.60;;;;;;5109981;28;19911;-71
2023/07/09 03:30:45;;;;;;;;;;;23.20;68.40;;;;;;5110222;28;19912;-71
2023/07/09 03:33:11;;;;;;;;;;;23.20;68.50;;;;;;5110075;28;20404;-71
2023/07/09 03:35:38;;;;;;;;;;;23.10;68.60;;;;;;5109501;28;19908;-71
2023/07/09 03:38:04;;;;;;;;;;;23.10;68.60;;;;;;5110134;28;20347;-71
2023/07/09 03:40:29;;;;;;;;;;;23.10;68.70;;;;;;5108278;28;19963;-71
2023/07/09 03:42:55;;;;;;;;;;;23.10;68.70;;;;;;5109919;28;19999;-71
2023/07/09 03:45:20;;;;;;;;;;;23.10;68.80;;;;;;5109390;28;19915;-71
2023/07/09 03:47:46;;;;;;;;;;;23.10;68.90;;;;;;5109771;28;20276;-71
2023/07/09 03:50:11;;;;;;;;;;;23.00;68.80;;;;;;5109606;28;19916;-71
2023/07/09 03:52:37;;;;;;;;;;;23.00;69.10;;;;;;5109746;28;19908;-71
2023/07/09 03:55:04;;;;;;;;;;;23.00;68.90;;;;;;5096531;28;19908;-71
2023/07/09 03:57:30;;;;;;;;;;;23.00;69.00;;;;;;5108926;28;19935;-72
2023/07/09 03:59:55;;;;;;;;;;;23.00;69.00;;;;;;5109510;28;19954;-72
2023/07/09 04:02:21;;;;;;;;;;;23.00;68.90;;;;;;5109608;28;19920;-71
2023/07/09 04:04:46;;;;;;;;;;;23.00;69.20;;;;;;5109413;28;19911;-71
2023/07/09 04:07:12;;;;;;;;;;;22.90;69.10;;;;;;5109314;28;19939;-71
2023/07/09 04:09:38;;;;;;;;;;;22.90;69.10;;;;;;5109331;28;19915;-71
2023/07/09 04:12:03;;;;;;;;;;;22.90;69.40;;;;;;5107058;28;20007;-71
2023/07/09 04:14:29;;;;;;;;;;;22.80;69.20;;;;;;5109218;28;20597;-71
2023/07/09 04:16:54;;;;;;;;;;;22.80;69.30;;;;;;5109057;28;19915;-71
2023/07/09 04:19:20;;;;;;;;;;;22.80;69.40;;;;;;5109417;28;19938;-72
2023/07/09 04:21:46;;;;;;;;;;;22.80;69.10;;;;;;5109246;28;20304;-71
2023/07/09 04:24:11;;;;;;;;;;;22.80;69.20;;;;;;5103367;28;19920;-71
2023/07/09 04:26:38;;;;;;;;;;;22.80;69.30;;;;;;5100877;28;19953;-71
2023/07/09 04:29:05;;;;;;;;;;;22.80;69.40;;;;;;5109236;28;19965;-71
2023/07/09 04:31:30;;;;;;;;;;;22.80;69.40;;;;;;5108817;28;19912;-71
2023/07/09 04:33:56;;;;;;;;;;;22.80;69.50;;;;;;5109248;28;20001;-71
2023/07/09 04:36:21;;;;;;;;;;;22.70;69.40;;;;;;5108730;28;19914;-71
2023/07/09 04:38:47;;;;;;;;;;;22.70;69.70;;;;;;5109241;28;19907;-71
2023/07/09 04:41:12;;;;;;;;;;;22.70;69.60;;;;;;5108588;28;19912;-71
2023/07/09 04:43:38;;;;;;;;;;;22.70;69.60;;;;;;5120665;28;19912;-71
2023/07/09 04:46:03;;;;;;;;;;;22.70;69.60;;;;;;5130869;27;19911;-71
2023/07/09 04:48:29;;;;;;;;;;;22.70;69.60;;;;;;5136240;27;20014;-71
2023/07/09 04:50:54;;;;;;;;;;;22.70;69.50;;;;;;5120116;27;19930;-71
2023/07/09 04:53:20;;;;;;;;;;;22.70;69.50;;;;;;5115612;27;20422;-71
2023/07/09 04:55:45;;;;;;;;;;;22.60;70.40;;;;;;5115487;27;19908;-71
2023/07/09 04:58:11;;;;;;;;;;;22.70;69.80;;;;;;5115555;27;19916;-71
2023/07/09 05:00:36;;;;;;;;;;;22.70;70.00;;;;;;5113980;28;19916;-71
2023/07/09 05:03:02;;;;;;;;;;;22.70;69.90;;;;;;5115499;27;19911;-71
2023/07/09 05:05:27;;;;;;;;;;;22.70;69.80;;;;;;5114922;27;19964;-71
2023/07/09 05:07:53;;;;;;;;;;;22.70;70.00;;;;;;5115639;27;19918;-71
2023/07/09 05:10:18;;;;;;;;;;;22.70;70.00;;;;;;5115151;27;19913;-71
2023/07/09 05:12:48;;;;;;;;;;;22.60;70.00;;;;;;5115131;27;20493;-71
2023/07/09 05:15:13;;;;;;;;;;;22.70;69.90;;;;;;5115208;27;19912;-71
2023/07/09 05:17:39;;;;;;;;;;;22.70;70.10;;;;;;5115321;27;19953;-71
2023/07/09 05:20:05;;;;;;;;;;;22.70;70.10;;;;;;5115226;27;20018;-71
2023/07/09 05:22:31;;;;;;;;;;;22.70;69.90;;;;;;5115521;27;19922;-71
2023/07/09 05:24:56;;;;;;;;;;;22.70;70.10;;;;;;5103174;27;19912;-71
2023/07/09 05:27:21;;;;;;;;;;;22.70;69.90;;;;;;5113589;28;19908;-71
2023/07/09 05:29:49;;;;;;;;;;;22.70;70.00;;;;;;5114524;27;20409;-71
2023/07/09 05:32:14;;;;;;;;;;;22.70;70.10;;;;;;5113911;28;19992;-71
2023/07/09 05:34:40;;;;;;;;;;;22.70;70.10;;;;;;5113907;28;19908;-71
2023/07/09 05:37:05;;;;;;;;;;;22.70;70.10;;;;;;5114706;27;19907;-71
2023/07/09 05:39:31;;;;;;;;;;;22.70;70.10;;;;;;5114035;28;19953;-71
2023/07/09 05:41:56;;;;;;;;;;;22.70;70.10;;;;;;5115220;28;19923;-71
2023/07/09 05:44:22;;;;;;;;;;;22.70;70.10;;;;;;5113866;27;20002;-71
2023/07/09 05:46:47;;;;;;;;;;;22.70;70.30;;;;;;5114662;27;20034;-71
2023/07/09 05:49:13;;;;;;;;;;;22.70;70.10;;;;;;5115039;27;19931;-71
2023/07/09 05:51:38;;;;;;;;;;;22.70;70.80;;;;;;5115077;27;20376;-71
2023/07/09 05:54:04;;;;;;;;;;;22.70;70.30;;;;;;5110349;27;19970;-71
2023/07/09 05:56:30;;;;;;;;;;;22.70;70.20;;;;;;5105865;28;19919;-71
2023/07/09 05:58:56;;;;;;;;;;;22.70;70.10;;;;;;5111097;27;19919;-71
2023/07/09 06:01:22;;;;;;;;;;;22.70;70.40;;;;;;5111617;28;20539;-71
2023/07/09 06:03:47;;;;;;;;;;;22.70;70.20;;;;;;5111853;28;19907;-71
2023/07/09 06:06:13;;;;;;;;;;;22.70;70.40;;;;;;5111098;28;19916;-71
2023/07/09 06:08:38;;;;;;;;;;;22.80;70.20;;;;;;5112100;28;19911;-71
2023/07/09 06:11:04;;;;;;;;;;;22.80;70.10;;;;;;5103885;28;19912;-71
2023/07/09 06:13:30;;;;;;;;;;;22.80;70.10;;;;;;5111468;28;19971;-71
2023/07/09 06:15:56;;;;;;;;;;;22.80;70.10;;;;;;5111253;28;19943;-71
2023/07/09 06:18:23;;;;;;;;;;;22.80;70.00;;;;;;5111510;28;19958;-71
2023/07/09 06:20:52;;;;;;;;;;;22.80;70.10;;;;;;5111258;28;19916;-71
2023/07/09 06:23:18;;;;;;;;;;;22.90;70.20;;;;;;5111367;28;20266;-71
2023/07/09 06:25:47;;;;;;;;;;;22.80;69.90;;;;;;5111023;28;19911;-71
2023/07/09 06:28:13;;;;;;;;;;;22.80;69.90;;;;;;5111493;28;19953;-71
2023/07/09 06:30:38;;;;;;;;;;;22.90;69.90;;;;;;5111669;28;19911;-71
2023/07/09 06:33:04;;;;;;;;;;;22.90;69.80;;;;;;5111343;28;20007;-71
2023/07/09 06:35:29;;;;;;;;;;;22.90;69.80;;;;;;5110816;28;20399;-71
2023/07/09 06:37:55;;;;;;;;;;;23.00;69.80;;;;;;5111178;28;19919;-71
2023/07/09 06:40:21;;;;;;;;;;;23.00;69.70;;;;;;5110894;27;19918;-71
2023/07/09 06:42:46;;;;;;;;;;;23.00;69.50;;;;;;5109561;28;19908;-72
2023/07/09 06:45:12;;;;;;;;;;;23.00;69.60;;;;;;5110815;28;19914;-71
2023/07/09 06:47:37;;;;;;;;;;;23.00;69.50;;;;;;5110718;28;20322;-71
2023/07/09 06:50:03;;;;;;;;;;;23.00;69.40;;;;;;5110817;28;20337;-71
2023/07/09 06:52:29;;;;;;;;;;;23.10;69.50;;;;;;5119894;27;20523;-71
2023/07/09 06:54:54;;;;;;;;;;;23.10;69.30;;;;;;5110319;28;20010;-71
2023/07/09 06:57:20;;;;;;;;;;;23.10;69.20;;;;;;5110404;28;19911;-71
2023/07/09 06:59:45;;;;;;;;;;;23.10;69.30;;;;;;5110495;28;19980;-71
2023/07/09 07:02:11;;;;;;;;;;;23.10;69.10;;;;;;5110675;28;19919;-71
2023/07/09 07:04:36;;;;;;;;;;;23.20;69.00;;;;;;5110464;28;19947;-71
2023/07/09 07:07:03;;;;;;;;;;;23.20;69.10;;;;;;5110291;28;19915;-71
2023/07/09 07:09:28;;;;;;;;;;;23.30;69.30;;;;;;5110313;28;19915;-71
2023/07/09 07:11:54;;;;;;;;;;;23.30;69.00;;;;;;5102378;28;19985;-71
2023/07/09 07:14:19;;;;;;;;;;;23.30;69.00;;;;;;5110458;27;19916;-71
2023/07/09 07:16:45;;;;;;;;;;;23.30;68.90;;;;;;5109885;28;19966;-71
2023/07/09 07:19:10;;;;;;;;;;;23.30;68.90;;;;;;5110311;28;19914;-71
2023/07/09 07:21:36;;;;;;;;;;;23.30;68.90;;;;;;5110080;28;19919;-71
2023/07/09 07:24:01;;;;;;;;;;;23.40;68.80;;;;;;5104950;28;19982;-71
2023/07/09 07:26:27;;;;;;;;;;;23.40;68.90;;;;;;5099733;28;20622;-71
2023/07/09 07:28:52;;;;;;;;;;;23.40;68.90;;;;;;5109458;28;19919;-71
2023/07/09 07:31:18;;;;;;;;;;;23.50;68.80;;;;;;5109213;28;20324;-71
2023/07/09 07:33:43;;;;;;;;;;;23.50;68.80;;;;;;5109089;27;20010;-71
2023/07/09 07:36:09;;;;;;;;;;;23.50;68.70;;;;;;5108771;28;19919;-71
2023/07/09 07:38:35;;;;;;;;;;;23.60;68.80;;;;;;5109233;28;19946;-71
2023/07/09 07:41:01;;;;;;;;;;;23.60;68.60;;;;;;5109165;28;19912;-71
2023/07/09 07:43:26;;;;;;;;;;;23.60;68.70;;;;;;5109171;28;19908;-71
2023/07/09 07:45:52;;;;;;;;;;;23.60;68.70;;;;;;5108566;28;19939;-71
2023/07/09 07:48:17;;;;;;;;;;;23.70;68.70;;;;;;5109048;28;20676;-71
2023/07/09 07:50:45;;;;;;;;;;;23.70;68.60;;;;;;5108805;28;19912;-71
2023/07/09 07:53:11;;;;;;;;;;;23.80;68.80;;;;;;5108957;28;19923;-71
2023/07/09 07:55:37;;;;;;;;;;;23.80;68.50;;;;;;5094707;28;19912;-71
2023/07/09 07:58:03;;;;;;;;;;;23.90;68.50;;;;;;5108921;28;19964;-71
2023/07/09 08:00:29;;;;;;;;;;;23.90;68.90;;;;;;5108862;28;19912;-71
2023/07/09 08:02:55;;;;;;;;;;;23.90;68.80;;;;;;5108842;28;20279;-71
2023/07/09 08:05:20;;;;;;;;;;;23.90;68.40;;;;;;5108521;28;19982;-71
2023/07/09 08:07:46;;;;;;;;;;;24.00;68.50;;;;;;5108830;28;19911;-71
2023/07/09 08:10:12;;;;;;;;;;;24.00;68.90;;;;;;5106261;28;20061;-71
2023/07/09 08:12:38;;;;;;;;;;;24.10;68.50;;;;;;5102903;28;19919;-72
2023/07/09 08:15:04;;;;;;;;;;;24.10;68.50;;;;;;5106862;28;19933;-71
2023/07/09 08:17:29;;;;;;;;;;;24.20;68.50;;;;;;5108312;28;19912;-71
2023/07/09 08:19:55;;;;;;;;;;;24.20;69.00;;;;;;5108224;28;19964;-71
2023/07/09 08:22:21;;;;;;;;;;;24.30;68.80;;;;;;5107727;27;19943;-71
2023/07/09 08:24:50;;;;;;;;;;;24.30;68.10;;;;;;5097487;28;19916;-71
2023/07/09 08:27:15;;;;;;;;;;;24.30;68.30;;;;;;5105603;28;20372;-71
2023/07/09 08:29:42;;;;;;;;;;;24.30;68.30;;;;;;5108149;28;19915;-71
2023/07/09 08:32:08;;;;;;;;;;;24.40;68.40;;;;;;5106526;28;19912;-72
2023/07/09 08:34:33;;;;;;;;;;;24.40;68.40;;;;;;5108261;28;20526;-71
2023/07/09 08:36:59;;;;;;;;;;;24.50;68.40;;;;;;5108022;28;19922;-71
2023/07/09 08:39:24;;;;;;;;;;;24.50;68.70;;;;;;5108285;28;19919;-71
2023/07/09 08:41:50;;;;;;;;;;;24.60;68.20;;;;;;5107888;28;19915;-71
2023/07/09 08:44:18;;;;;;;;;;;24.60;68.50;;;;;;5106993;28;20309;-71
2023/07/09 08:46:53;;;;;;;;;;;24.70;68.20;;;;;;5107646;28;19916;-71
2023/07/09 08:49:21;;;;;;;;;;;24.70;67.90;;;;;;5108225;28;20109;-71
2023/07/09 08:51:47;;;;;;;;;;;24.80;68.00;;;;;;5108022;28;20007;-71
2023/07/09 08:54:17;;;;;;;;;;;24.80;68.50;;;;;;5111305;28;20650;-71
2023/07/09 08:56:43;;;;;;;;;;;24.90;68.00;;;;;;5107405;28;19912;-71
2023/07/09 08:59:12;;;;;;;;;;;24.90;68.00;;;;;;5108047;28;19911;-71
2023/07/09 09:01:40;;;;;;;;;;;24.90;68.00;;;;;;5107554;28;19960;-71
2023/07/09 09:04:06;;;;;;;;;;;25.00;68.40;;;;;;5104533;28;19919;-71
2023/07/09 09:06:31;;;;;;;;;;;25.10;67.90;;;;;;5107611;28;20269;-71
2023/07/09 09:09:03;;;;;;;;;;;25.20;68.10;;;;;;5108191;28;19916;-71
2023/07/09 09:11:29;;;;;;;;;;;25.20;67.90;;;;;;5105886;28;19944;-71
2023/07/09 09:13:57;;;;;;;;;;;25.30;67.50;;;;;;5107393;28;19978;-71
2023/07/09 09:16:38;;;;;;;;;;;25.30;67.80;;;;;;5107532;28;19919;-71
2023/07/09 09:19:08;;;;;;;;;;;25.30;67.50;;;;;;5108046;28;19912;-71
2023/07/09 09:21:35;;;;;;;;;;;25.40;67.80;;;;;;5106404;28;19918;-71
2023/07/09 09:24:23;;;;;;;;;;;25.50;67.60;;;;;;5102338;28;19920;-71
2023/07/09 09:26:51;;;;;;;;;;;25.50;67.60;;;;;;5092910;28;19968;-71
2023/07/09 09:29:16;;;;;;;;;;;25.60;67.80;;;;;;5107748;28;19912;-71
2023/07/09 09:31:44;;;;;;;;;;;25.60;67.40;;;;;;5106095;28;20320;-71
2023/07/09 09:34:20;;;;;;;;;;;25.70;67.00;;;;;;5111738;27;19954;-71
2023/07/09 09:36:46;;;;;;;;;;;25.70;67.10;;;;;;5111159;28;19912;-71
2023/07/09 09:39:12;;;;;;;;;;;25.80;67.20;;;;;;5111762;28;19912;-71
2023/07/09 09:41:38;;;;;;;;;;;25.80;67.30;;;;;;5111468;27;19918;-71
2023/07/09 09:44:04;;;;;;;;;;;25.90;67.60;;;;;;5110116;28;19916;-71
2023/07/09 09:46:31;;;;;;;;;;;26.00;66.90;;;;;;5110890;28;19992;-71
2023/07/09 09:48:59;;;;;;;;;;;26.00;67.20;;;;;;5112099;28;19951;-71
2023/07/09 09:51:26;;;;;;;;;;;26.10;67.10;;;;;;5112008;28;19911;-71
2023/07/09 09:53:59;;;;;;;;;;;26.20;67.00;;;;;;5108832;28;19951;-71
2023/07/09 09:56:27;;;;;;;;;;;26.20;66.90;;;;;;5102116;28;20581;-71
2023/07/09 09:58:56;;;;;;;;;;;26.30;66.80;;;;;;5111748;28;20353;-71
2023/07/09 10:01:26;;;;;;;;;;;26.40;66.80;;;;;;5111797;28;19927;-71
2023/07/09 10:03:54;;;;;;;;;;;26.50;66.90;;;;;;5111754;28;20029;-71
2023/07/09 10:06:23;;;;;;;;;;;26.50;67.00;;;;;;5111415;28;19912;-71
2023/07/09 10:08:51;;;;;;;;;;;26.60;66.50;;;;;;5111953;28;19911;-71
2023/07/09 10:11:16;;;;;;;;;;;26.70;66.80;;;;;;5110839;28;19998;-71
2023/07/09 10:13:43;;;;;;;;;;;26.80;66.50;;;;;;5111205;28;20004;-71
2023/07/09 10:16:11;;;;;;;;;;;26.80;66.50;;;;;;5110928;28;19912;-71
2023/07/09 10:18:37;;;;;;;;;;;26.90;66.30;;;;;;5111631;28;19912;-71
2023/07/09 10:21:08;;;;;;;;;;;27.00;66.50;;;;;;5111298;27;19916;-71
2023/07/09 10:23:59;;;;;;;;;;;27.00;66.50;;;;;;5110797;28;20328;-71
2023/07/09 10:26:41;;;;;;;;;;;27.10;66.60;;;;;;5100123;28;20280;-71
2023/07/09 10:29:26;;;;;;;;;;;27.20;66.70;;;;;;5111332;27;20346;-68
2023/07/09 10:32:02;;;;;;;;;;;27.30;66.80;;;;;;5109558;28;19949;-68
2023/07/09 10:34:48;;;;;;;;;;;27.40;66.80;;;;;;5111090;28;19924;-68
2023/07/09 10:37:20;;;;;;;;;;;27.50;66.80;;;;;;5110400;28;19912;-68
2023/07/09 10:39:47;;;;;;;;;;;27.60;67.00;;;;;;5111214;28;19957;-68
2023/07/09 10:42:19;;;;;;;;;;;27.70;66.80;;;;;;5110502;28;19911;-68
2023/07/09 10:44:47;;;;;;;;;;;27.80;66.90;;;;;;5109968;28;20302;-68
2023/07/09 10:47:22;;;;;;;;;;;27.80;66.90;;;;;;5110743;28;19908;-68
2023/07/09 10:49:49;;;;;;;;;;;27.90;66.70;;;;;;5111005;28;19916;-68
2023/07/09 10:52:25;;;;;;;;;;;28.00;66.70;;;;;;5111069;28;19916;-68
2023/07/09 10:54:50;;;;;;;;;;;28.10;66.60;;;;;;5099834;28;20257;-68
2023/07/09 10:57:19;;;;;;;;;;;28.30;66.90;;;;;;5110467;27;19907;-68
2023/07/09 10:59:47;;;;;;;;;;;28.40;67.10;;;;;;5110721;28;19912;-67
2023/07/09 11:02:26;;;;;;;;;;;28.50;67.20;;;;;;5111729;27;20583;-67
2023/07/09 11:04:57;;;;;;;;;;;28.60;67.40;;;;;;5103434;28;19914;-68
2023/07/09 11:07:27;;;;;;;;;;;28.70;67.60;;;;;;5110344;28;19916;-67
2023/07/09 11:09:56;;;;;;;;;;;28.80;67.50;;;;;;5109998;28;20036;-68
2023/07/09 11:12:29;;;;;;;;;;;29.00;67.10;;;;;;5101666;28;20030;-68
2023/07/09 11:14:54;;;;;;;;;;;29.10;66.90;;;;;;5109446;28;20020;-68
2023/07/09 11:17:21;;;;;;;;;;;29.20;67.20;;;;;;5109526;28;20414;-68
2023/07/09 11:19:48;;;;;;;;;;;29.30;67.10;;;;;;5109530;28;19911;-68
2023/07/09 11:22:17;;;;;;;;;;;29.40;67.10;;;;;;5109179;28;20034;-67
2023/07/09 11:24:46;;;;;;;;;;;29.60;67.00;;;;;;5099173;28;20584;-68
2023/07/09 11:27:23;;;;;;;;;;;29.70;66.80;;;;;;5106010;28;20372;-68
2023/07/09 11:29:55;;;;;;;;;;;29.80;66.80;;;;;;5109305;28;20337;-68
2023/07/09 11:32:22;;;;;;;;;;;29.90;66.70;;;;;;5109163;28;19927;-68
2023/07/09 11:34:47;;;;;;;;;;;30.00;66.90;;;;;;5109246;28;20000;-68
2023/07/09 11:37:14;;;;;;;;;;;30.10;66.80;;;;;;5108990;28;20004;-68
2023/07/09 11:39:40;;;;;;;;;;;30.20;66.90;;;;;;5109095;28;19916;-68
2023/07/09 11:42:24;;;;;;;;;;;30.30;66.90;;;;;;5108948;28;20375;-68
2023/07/09 11:44:51;;;;;;;;;;;30.40;66.60;;;;;;5108935;28;20345;-68
2023/07/09 11:47:22;;;;;;;;;;;30.50;66.50;;;;;;5108578;28;19918;-68
2023/07/09 11:50:01;;;;;;;;;;;30.50;66.40;;;;;;5115473;27;20097;-68
2023/07/09 11:52:29;;;;;;;;;;;30.60;66.20;;;;;;5129518;27;20324;-68
2023/07/09 11:54:55;;;;;;;;;;;30.70;65.80;;;;;;5116736;27;19916;-68
2023/07/09 11:57:21;;;;;;;;;;;30.80;65.50;;;;;;5107799;28;19916;-68
2023/07/09 11:59:46;;;;;;;;;;;30.90;65.60;;;;;;5108870;28;20030;-68
2023/07/09 12:02:17;;;;;;;;;;;31.00;65.80;;;;;;5108642;28;20306;-68
2023/07/09 12:04:43;;;;;;;;;;;31.00;65.80;;;;;;5108766;28;20356;-68
2023/07/09 12:07:12;;;;;;;;;;;31.10;65.80;;;;;;5108211;27;19911;-67
2023/07/09 12:09:39;;;;;;;;;;;31.20;65.60;;;;;;5108402;28;19912;-68
2023/07/09 12:12:16;;;;;;;;;;;31.30;65.30;;;;;;5107677;28;19916;-68
2023/07/09 12:14:41;;;;;;;;;;;31.40;65.60;;;;;;5108475;28;20328;-68
2023/07/09 12:17:08;;;;;;;;;;;31.40;65.70;;;;;;5108262;28;19946;-68
2023/07/09 12:19:33;;;;;;;;;;;31.50;65.10;;;;;;5113863;27;19946;-68
2023/07/09 12:21:59;;;;;;;;;;;31.50;65.10;;;;;;5129769;27;20037;-68
2023/07/09 12:24:28;;;;;;;;;;;31.50;65.40;;;;;;5121773;27;19979;-70
2023/07/09 12:26:55;;;;;;;;;;;31.50;65.60;;;;;;5108688;28;20078;-71
2023/07/09 12:29:24;;;;;;;;;;;31.60;65.70;;;;;;5108899;28;20326;-70
2023/07/09 12:31:49;;;;;;;;;;;31.70;65.70;;;;;;5109071;28;19912;-71
2023/07/09 12:34:16;;;;;;;;;;;31.70;65.30;;;;;;5109174;28;20288;-71
2023/07/09 12:36:44;;;;;;;;;;;31.80;65.20;;;;;;5108639;28;19912;-70
2023/07/09 12:39:12;;;;;;;;;;;31.90;64.30;;;;;;5109063;28;19912;-70
2023/07/09 12:41:38;;;;;;;;;;;31.90;64.90;;;;;;5108824;28;20391;-71
2023/07/09 12:44:04;;;;;;;;;;;32.00;64.70;;;;;;5109241;28;19919;-71
2023/07/09 12:46:30;;;;;;;;;;;32.00;64.70;;;;;;5107356;28;19912;-71
2023/07/09 12:48:56;;;;;;;;;;;32.10;64.60;;;;;;5108659;28;19915;-71
2023/07/09 12:51:24;;;;;;;;;;;32.10;64.60;;;;;;5127645;28;19916;-71
2023/07/09 12:54:08;;;;;;;;;;;32.20;63.80;;;;;;5126710;27;19912;-71
2023/07/09 12:56:34;;;;;;;;;;;32.20;64.40;;;;;;5108443;28;19981;-71
2023/07/09 12:59:01;;;;;;;;;;;32.20;64.00;;;;;;5108670;28;19911;-71
2023/07/09 13:01:33;;;;;;;;;;;32.20;63.90;;;;;;5108696;28;19984;-71
2023/07/09 13:04:00;;;;;;;;;;;32.20;64.20;;;;;;5116877;27;19922;-71
2023/07/09 13:06:26;;;;;;;;;;;32.20;64.40;;;;;;5106731;28;20348;-71
2023/07/09 13:08:55;;;;;;;;;;;32.30;64.30;;;;;;5111282;28;19918;-71
2023/07/09 13:11:20;;;;;;;;;;;32.30;63.70;;;;;;5110687;28;20777;-71
2023/07/09 13:14:02;;;;;;;;;;;32.40;63.60;;;;;;5112577;28;20040;-71
2023/07/09 13:16:27;;;;;;;;;;;32.40;63.80;;;;;;5112048;28;19912;-71
2023/07/09 13:18:53;;;;;;;;;;;32.40;63.70;;;;;;5112497;28;19923;-71
2023/07/09 13:21:20;;;;;;;;;;;32.40;63.60;;;;;;5130764;27;19915;-71
2023/07/09 13:23:46;;;;;;;;;;;32.40;63.70;;;;;;5130742;27;19920;-71
2023/07/09 13:26:13;;;;;;;;;;;32.40;63.50;;;;;;5112309;28;19916;-71
2023/07/09 13:28:39;;;;;;;;;;;32.40;63.70;;;;;;5112388;28;19960;-71
2023/07/09 13:31:07;;;;;;;;;;;32.40;63.90;;;;;;5111339;28;19919;-71
2023/07/09 13:33:33;;;;;;;;;;;32.40;63.90;;;;;;5112397;27;20044;-71
2023/07/09 13:35:58;;;;;;;;;;;32.30;64.10;;;;;;5112080;28;20002;-71
2023/07/09 13:38:24;;;;;;;;;;;32.30;64.20;;;;;;5112451;28;19911;-71
2023/07/09 13:40:55;;;;;;;;;;;32.30;64.40;;;;;;5111578;28;20520;-71
2023/07/09 13:43:26;;;;;;;;;;;32.20;64.40;;;;;;5111548;27;19977;-71
2023/07/09 13:45:52;;;;;;;;;;;32.20;64.50;;;;;;5110810;28;19911;-71
2023/07/09 13:48:19;;;;;;;;;;;32.20;64.80;;;;;;5111240;28;19912;-71
2023/07/09 13:50:45;;;;;;;;;;;32.10;64.80;;;;;;5126059;27;20556;-71
2023/07/09 13:53:14;;;;;;;;;;;32.10;65.00;;;;;;5132136;27;20348;-71
2023/07/09 13:55:41;;;;;;;;;;;32.00;65.00;;;;;;5113138;27;20006;-71
2023/07/09 13:58:14;;;;;;;;;;;31.90;65.20;;;;;;5111021;28;19943;-71
2023/07/09 14:00:40;;;;;;;;;;;31.90;65.50;;;;;;5111056;27;20629;-71
2023/07/09 14:03:14;;;;;;;;;;;31.80;65.60;;;;;;5110907;28;19999;-71
2023/07/09 14:05:40;;;;;;;;;;;31.70;65.80;;;;;;5110487;28;20257;-71
2023/07/09 14:08:07;;;;;;;;;;;31.70;66.00;;;;;;5110833;28;19908;-71
2023/07/09 14:10:32;;;;;;;;;;;31.60;66.20;;;;;;5109533;28;20424;-71
2023/07/09 14:12:58;;;;;;;;;;;31.50;66.40;;;;;;5110364;27;20032;-71
2023/07/09 14:15:23;;;;;;;;;;;31.40;66.60;;;;;;5109172;28;19964;-71
2023/07/09 14:17:49;;;;;;;;;;;31.40;66.70;;;;;;5110851;28;20005;-71